createdAt,value
2023-04-16T00:00:03.289Z,8.20
2023-04-16T00:02:31.036Z,8.16
2023-04-16T00:04:58.677Z,8.07
2023-04-16T00:07:26.332Z,8.07
2023-04-16T00:09:53.839Z,8.15
2023-04-16T00:12:21.577Z,8.04
2023-04-16T00:14:50.392Z,8.03
2023-04-16T00:17:17.886Z,8.00
2023-04-16T00:19:45.572Z,8.12
2023-04-16T00:22:13.099Z,8.04
2023-04-16T00:24:40.617Z,8.04
2023-04-16T00:27:08.086Z,7.99
2023-04-16T00:29:35.717Z,8.07
2023-04-16T00:32:04.499Z,8.05
2023-04-16T00:34:31.973Z,7.90
2023-04-16T00:36:59.458Z,8.07
2023-04-16T00:39:26.960Z,7.92
2023-04-16T00:41:54.551Z,7.88
2023-04-16T00:44:22.123Z,7.88
2023-04-16T00:46:49.774Z,7.91
2023-04-16T00:49:18.735Z,7.88
2023-04-16T00:51:46.235Z,7.90
2023-04-16T00:54:13.744Z,7.91
2023-04-16T00:56:41.484Z,7.92
2023-04-16T00:59:09.905Z,7.98
2023-04-16T01:01:37.810Z,7.96
2023-04-16T01:04:07.130Z,7.83
2023-04-16T01:06:36.240Z,7.87
2023-04-16T01:09:03.889Z,7.84
2023-04-16T01:11:31.365Z,7.92
2023-04-16T01:13:58.873Z,7.94
2023-04-16T01:16:26.702Z,7.84
2023-04-16T01:18:54.304Z,7.82
2023-04-16T01:21:23.091Z,7.96
2023-04-16T01:23:50.606Z,7.84
2023-04-16T01:26:18.085Z,8.00
2023-04-16T01:28:45.652Z,7.92
2023-04-16T01:31:13.156Z,7.79
2023-04-16T01:33:40.734Z,7.72
2023-04-16T01:36:08.501Z,7.75
2023-04-16T01:38:37.315Z,7.77
2023-04-16T01:41:04.852Z,7.87
2023-04-16T01:43:32.430Z,7.68
2023-04-16T01:46:12.614Z,7.81
2023-04-16T01:48:40.185Z,8.04
2023-04-16T01:51:09.195Z,7.57
2023-04-16T01:53:38.113Z,7.66
2023-04-16T01:56:06.878Z,7.63
2023-04-16T01:58:34.694Z,7.79
2023-04-16T02:01:02.305Z,7.49
2023-04-16T02:03:30.026Z,7.48
2023-04-16T02:05:57.711Z,7.50
2023-04-16T02:08:25.406Z,7.75
2023-04-16T02:10:54.710Z,7.38
2023-04-16T02:13:23.256Z,7.40
2023-04-16T02:15:51.641Z,7.32
2023-04-16T02:18:19.870Z,7.55
2023-04-16T02:20:49.500Z,7.20
2023-04-16T02:23:17.050Z,7.33
2023-04-16T02:25:46.318Z,7.66
2023-04-16T02:28:16.646Z,7.44
2023-04-16T02:30:44.520Z,7.18
2023-04-16T02:33:13.021Z,7.22
2023-04-16T02:35:41.046Z,7.57
2023-04-16T02:38:08.885Z,7.12
2023-04-16T02:40:36.650Z,7.33
2023-04-16T02:43:04.409Z,7.18
2023-04-16T02:45:33.297Z,7.15
2023-04-16T02:48:01.632Z,7.24
2023-04-16T02:50:29.163Z,7.31
2023-04-16T02:52:56.754Z,7.28
2023-04-16T02:55:24.248Z,7.26
2023-04-16T02:57:52.771Z,7.14
2023-04-16T03:00:20.787Z,6.96
2023-04-16T03:02:49.827Z,7.00
2023-04-16T03:05:17.669Z,7.19
2023-04-16T03:07:45.403Z,7.19
2023-04-16T03:10:13.864Z,7.16
2023-04-16T03:12:41.470Z,7.11
2023-04-16T03:15:09.947Z,6.90
2023-04-16T03:17:37.571Z,7.19
2023-04-16T03:20:08.300Z,6.95
2023-04-16T03:22:35.920Z,6.81
2023-04-16T03:25:03.541Z,6.70
2023-04-16T03:27:31.137Z,6.74
2023-04-16T03:29:58.723Z,6.75
2023-04-16T03:32:26.758Z,6.89
2023-04-16T03:34:54.363Z,6.93
2023-04-16T03:37:23.202Z,6.98
2023-04-16T03:39:50.690Z,7.09
2023-04-16T03:42:18.191Z,6.89
2023-04-16T03:44:45.924Z,6.88
2023-04-16T03:47:13.433Z,6.89
2023-04-16T03:49:40.940Z,6.65
2023-04-16T03:52:08.438Z,6.70
2023-04-16T03:54:37.245Z,6.76
2023-04-16T03:57:05.143Z,6.59
2023-04-16T03:59:32.622Z,6.60
2023-04-16T04:02:00.338Z,6.65
2023-04-16T04:04:28.010Z,6.76
2023-04-16T04:06:55.654Z,6.59
2023-04-16T04:09:23.120Z,6.53
2023-04-16T04:11:51.969Z,6.61
2023-04-16T04:14:19.450Z,6.74
2023-04-16T04:16:46.979Z,6.81
2023-04-16T04:19:14.528Z,6.93
2023-04-16T04:21:42.065Z,6.66
2023-04-16T04:24:09.661Z,6.37
2023-04-16T04:26:37.250Z,6.61
2023-04-16T04:29:06.200Z,6.77
2023-04-16T04:31:33.745Z,6.37
2023-04-16T04:34:01.362Z,6.63
2023-04-16T04:36:28.961Z,6.75
2023-04-16T04:38:56.479Z,6.41
2023-04-16T04:41:23.998Z,6.29
2023-04-16T04:43:51.884Z,6.54
2023-04-16T04:46:20.874Z,6.62
2023-04-16T04:48:48.501Z,6.51
2023-04-16T04:51:15.979Z,6.38
2023-04-16T04:53:43.470Z,6.77
2023-04-16T04:56:12.889Z,6.44
2023-04-16T04:58:41.304Z,6.63
2023-04-16T05:01:08.882Z,6.78
2023-04-16T05:03:38.080Z,6.44
2023-04-16T05:06:06.107Z,6.41
2023-04-16T05:08:33.671Z,6.43
2023-04-16T05:11:01.487Z,6.70
2023-04-16T05:13:28.984Z,6.57
2023-04-16T05:15:56.484Z,6.40
2023-04-16T05:18:24.024Z,6.37
2023-04-16T05:20:52.847Z,6.77
2023-04-16T05:23:20.411Z,6.86
2023-04-16T05:25:47.913Z,6.44
2023-04-16T05:28:15.393Z,6.45
2023-04-16T05:30:42.922Z,6.49
2023-04-16T05:33:10.451Z,6.56
2023-04-16T05:35:39.998Z,6.65
2023-04-16T05:38:08.801Z,6.52
2023-04-16T05:40:36.332Z,6.66
2023-04-16T05:43:03.896Z,6.59
2023-04-16T05:45:33.354Z,6.63
2023-04-16T05:48:00.850Z,6.68
2023-04-16T05:50:28.380Z,6.95
2023-04-16T05:52:55.866Z,6.59
2023-04-16T05:55:24.670Z,6.56
2023-04-16T05:57:52.184Z,6.47
2023-04-16T06:00:19.772Z,6.57
2023-04-16T06:02:47.337Z,6.55
2023-04-16T06:05:15.084Z,6.71
2023-04-16T06:07:42.634Z,6.51
2023-04-16T06:10:11.114Z,6.49
2023-04-16T06:12:40.023Z,6.54
2023-04-16T06:15:08.797Z,6.47
2023-04-16T06:17:36.305Z,6.75
2023-04-16T06:20:04.799Z,6.39
2023-04-16T06:22:32.408Z,6.49
2023-04-16T06:24:59.891Z,6.49
2023-04-16T06:27:27.564Z,6.56
2023-04-16T06:29:57.949Z,6.57
2023-04-16T06:32:25.955Z,6.41
2023-04-16T06:34:53.473Z,6.57
2023-04-16T06:37:20.944Z,6.74
2023-04-16T06:39:48.442Z,6.53
2023-04-16T06:42:16.123Z,6.45
2023-04-16T06:44:43.639Z,6.70
2023-04-16T06:47:12.570Z,6.68
2023-04-16T06:49:40.374Z,6.87
2023-04-16T06:52:07.977Z,6.55
2023-04-16T06:54:35.500Z,6.75
2023-04-16T06:57:03.010Z,6.88
2023-04-16T06:59:30.523Z,6.92
2023-04-16T07:01:58.258Z,6.86
2023-04-16T07:04:27.201Z,6.71
2023-04-16T07:06:54.697Z,6.72
2023-04-16T07:09:22.309Z,6.85
2023-04-16T07:11:49.869Z,6.89
2023-04-16T07:14:17.416Z,6.82
2023-04-16T07:16:44.919Z,6.87
2023-04-16T07:19:12.491Z,6.84
2023-04-16T07:21:43.541Z,7.02
2023-04-16T07:24:11.311Z,6.75
2023-04-16T07:26:38.826Z,7.04
2023-04-16T07:29:06.370Z,6.73
2023-04-16T07:31:33.894Z,6.98
2023-04-16T07:34:01.408Z,6.93
2023-04-16T07:36:29.217Z,6.62
2023-04-16T07:38:58.037Z,6.88
2023-04-16T07:41:25.884Z,6.80
2023-04-16T07:43:53.384Z,6.92
2023-04-16T07:46:21.147Z,7.19
2023-04-16T07:48:48.729Z,7.04
2023-04-16T07:51:16.289Z,7.09
2023-04-16T07:53:43.787Z,6.98
2023-04-16T07:56:12.666Z,6.99
2023-04-16T07:58:40.279Z,6.78
2023-04-16T08:01:07.786Z,6.87
2023-04-16T08:03:35.496Z,6.78
2023-04-16T08:06:03.365Z,7.09
2023-04-16T08:08:30.840Z,6.99
2023-04-16T08:10:58.516Z,7.38
2023-04-16T08:13:27.347Z,7.24
2023-04-16T08:15:54.864Z,7.04
2023-04-16T08:18:22.380Z,6.86
2023-04-16T08:20:49.852Z,6.97
2023-04-16T08:23:17.359Z,7.33
2023-04-16T08:25:44.820Z,6.85
2023-04-16T08:28:12.331Z,6.80
2023-04-16T08:30:41.243Z,6.87
2023-04-16T08:33:09.140Z,7.28
2023-04-16T08:35:36.864Z,6.76
2023-04-16T08:38:04.734Z,7.33
2023-04-16T08:40:32.438Z,6.90
2023-04-16T08:43:01.008Z,7.16
2023-04-16T08:45:28.535Z,7.12
2023-04-16T08:47:57.722Z,7.14
2023-04-16T08:50:26.599Z,7.23
2023-04-16T08:52:57.507Z,7.11
2023-04-16T08:55:27.893Z,7.37
2023-04-16T08:57:59.183Z,7.83
2023-04-16T09:00:26.910Z,7.49
2023-04-16T09:02:54.988Z,7.47
2023-04-16T09:05:25.740Z,6.98
2023-04-16T09:07:54.172Z,7.12
2023-04-16T09:10:21.883Z,7.19
2023-04-16T09:12:49.424Z,7.21
2023-04-16T09:15:16.939Z,7.15
2023-04-16T09:17:44.511Z,7.01
2023-04-16T09:20:12.557Z,7.12
2023-04-16T09:22:41.495Z,7.20
2023-04-16T09:25:09.842Z,7.32
2023-04-16T09:27:37.947Z,6.96
2023-04-16T09:30:21.912Z,6.86
2023-04-16T09:32:49.976Z,7.10
2023-04-16T09:35:18.799Z,7.46
2023-04-16T09:37:57.614Z,7.08
2023-04-16T09:40:26.125Z,7.52
2023-04-16T09:42:56.066Z,7.15
2023-04-16T09:45:23.815Z,7.14
2023-04-16T09:47:51.522Z,7.15
2023-04-16T09:50:20.536Z,7.24
2023-04-16T09:52:51.409Z,7.30
2023-04-16T09:55:23.975Z,7.65
2023-04-16T09:57:59.847Z,7.20
2023-04-16T10:00:27.388Z,7.15
2023-04-16T10:03:04.901Z,7.21
2023-04-16T10:05:32.452Z,7.12
2023-04-16T10:08:02.580Z,7.46
2023-04-16T10:10:30.491Z,7.35
2023-04-16T10:12:58.507Z,7.36
2023-04-16T10:15:26.264Z,7.49
2023-04-16T10:17:55.141Z,7.43
2023-04-16T10:20:23.853Z,7.41
2023-04-16T10:22:51.440Z,7.77
2023-04-16T10:25:20.921Z,7.52
2023-04-16T10:27:48.999Z,7.62
2023-04-16T10:30:16.690Z,7.72
2023-04-16T10:32:44.812Z,7.68
2023-04-16T10:35:16.781Z,7.94
2023-04-16T10:37:46.094Z,7.72
2023-04-16T10:40:24.875Z,7.58
2023-04-16T10:42:58.117Z,7.65
2023-04-16T10:45:32.420Z,7.47
2023-04-16T10:48:00.057Z,7.52
2023-04-16T10:50:36.055Z,7.69
2023-04-16T10:53:24.021Z,7.83
2023-04-16T10:56:00.458Z,8.00
2023-04-16T10:58:28.573Z,7.79
2023-04-16T11:00:56.074Z,7.99
2023-04-16T11:03:23.703Z,8.15
2023-04-16T11:05:51.269Z,7.90
2023-04-16T11:08:18.761Z,8.11
2023-04-16T11:10:46.296Z,8.13
2023-04-16T11:13:15.294Z,8.02
2023-04-16T11:15:42.815Z,8.22
2023-04-16T11:18:10.750Z,7.84
2023-04-16T11:20:42.544Z,8.01
2023-04-16T11:23:13.083Z,8.36
2023-04-16T11:25:40.686Z,8.31
2023-04-16T11:28:08.190Z,8.26
2023-04-16T11:30:38.606Z,8.25
2023-04-16T11:33:06.722Z,8.07
2023-04-16T11:35:34.390Z,8.21
2023-04-16T11:38:02.264Z,8.37
2023-04-16T11:40:30.851Z,8.28
2023-04-16T11:43:02.758Z,8.26
2023-04-16T11:45:30.509Z,8.21
2023-04-16T11:47:59.392Z,8.17
2023-04-16T11:50:27.730Z,8.66
2023-04-16T11:52:57.081Z,8.43
2023-04-16T11:55:25.057Z,8.24
2023-04-16T11:57:52.579Z,8.54
2023-04-16T12:00:21.607Z,8.45
2023-04-16T12:02:53.331Z,8.70
2023-04-16T12:05:30.839Z,8.58
2023-04-16T12:07:59.019Z,8.58
2023-04-16T12:10:27.404Z,8.48
2023-04-16T12:12:55.005Z,8.70
2023-04-16T12:15:22.511Z,8.77
2023-04-16T12:17:50.559Z,9.06
2023-04-16T12:20:18.116Z,8.60
2023-04-16T12:22:49.450Z,8.84
2023-04-16T12:25:18.777Z,9.12
2023-04-16T12:27:48.616Z,9.04
2023-04-16T12:30:18.399Z,9.06
2023-04-16T12:32:47.543Z,9.10
2023-04-16T12:35:15.643Z,8.98
2023-04-16T12:37:43.159Z,8.89
2023-04-16T12:40:12.554Z,8.52
2023-04-16T12:42:40.243Z,8.78
2023-04-16T12:45:08.416Z,8.95
2023-04-16T12:47:36.025Z,8.60
2023-04-16T12:50:03.653Z,8.70
2023-04-16T12:52:31.194Z,8.54
2023-04-16T12:54:58.706Z,8.91
2023-04-16T12:57:28.726Z,8.72
2023-04-16T12:59:56.965Z,8.70
2023-04-16T13:02:24.778Z,8.59
2023-04-16T13:04:52.649Z,8.54
2023-04-16T13:07:20.385Z,8.58
2023-04-16T13:09:48.243Z,8.84
2023-04-16T13:12:15.735Z,8.93
2023-04-16T13:14:45.200Z,8.94
2023-04-16T13:17:12.759Z,8.93
2023-04-16T13:19:40.292Z,9.02
2023-04-16T13:22:07.793Z,9.06
2023-04-16T13:24:35.435Z,9.23
2023-04-16T13:27:03.134Z,9.04
2023-04-16T13:29:30.914Z,9.52
2023-04-16T13:31:59.753Z,9.51
2023-04-16T13:34:27.421Z,9.30
2023-04-16T13:36:54.897Z,9.24
2023-04-16T13:39:22.419Z,9.17
2023-04-16T13:41:51.291Z,9.35
2023-04-16T13:44:18.827Z,9.40
2023-04-16T13:46:47.719Z,9.30
2023-04-16T13:49:16.933Z,9.17
2023-04-16T13:51:45.036Z,9.16
2023-04-16T13:54:12.580Z,9.18
2023-04-16T13:56:40.911Z,9.06
2023-04-16T13:59:08.777Z,9.17
2023-04-16T14:01:36.582Z,9.00
2023-04-16T14:04:06.382Z,9.18
2023-04-16T14:06:35.905Z,9.13
2023-04-16T14:09:04.530Z,9.10
2023-04-16T14:11:32.236Z,8.99
2023-04-16T14:13:59.782Z,9.24
2023-04-16T14:16:27.531Z,9.33
2023-04-16T14:18:55.332Z,9.18
2023-04-16T14:21:22.992Z,9.09
2023-04-16T14:23:51.907Z,9.20
2023-04-16T14:26:19.459Z,9.23
2023-04-16T14:28:46.952Z,9.01
2023-04-16T14:31:14.518Z,9.29
2023-04-16T14:33:42.130Z,9.23
2023-04-16T14:36:09.922Z,9.04
2023-04-16T14:38:37.429Z,9.16
2023-04-16T14:41:06.395Z,9.64
2023-04-16T14:43:34.277Z,9.38
2023-04-16T14:46:03.449Z,9.49
2023-04-16T14:48:31.075Z,9.55
2023-04-16T14:50:58.607Z,9.28
2023-04-16T14:53:26.113Z,9.27
2023-04-16T14:55:53.770Z,9.18
2023-04-16T14:58:22.879Z,9.07
2023-04-16T15:00:50.506Z,9.15
2023-04-16T15:03:18.285Z,9.12
2023-04-16T15:05:47.489Z,9.02
2023-04-16T15:08:16.098Z,9.15
2023-04-16T15:10:45.751Z,9.07
2023-04-16T15:13:13.395Z,9.04
2023-04-16T15:15:42.222Z,9.06
2023-04-16T15:18:09.851Z,9.07
2023-04-16T15:20:37.361Z,9.10
2023-04-16T15:23:05.142Z,9.10
2023-04-16T15:25:32.614Z,9.29
2023-04-16T15:28:02.459Z,9.24
2023-04-16T15:30:29.999Z,9.19
2023-04-16T15:32:58.878Z,9.23
2023-04-16T15:35:26.419Z,9.41
2023-04-16T15:37:55.398Z,9.24
2023-04-16T15:40:22.920Z,9.31
2023-04-16T15:42:50.429Z,9.27
2023-04-16T15:45:17.933Z,9.19
2023-04-16T15:47:47.970Z,9.10
2023-04-16T15:50:17.019Z,9.34
2023-04-16T15:52:44.547Z,9.25
2023-04-16T15:55:12.173Z,9.38
2023-04-16T15:57:39.809Z,9.14
2023-04-16T16:00:13.510Z,9.11
2023-04-16T16:02:41.779Z,9.07
2023-04-16T16:05:10.771Z,9.03
2023-04-16T16:07:39.715Z,8.98
2023-04-16T16:10:08.645Z,8.97
2023-04-16T16:12:36.488Z,8.92
2023-04-16T16:15:04.689Z,8.91
2023-04-16T16:17:32.272Z,8.87
2023-04-16T16:20:00.241Z,8.81
2023-04-16T16:22:27.768Z,8.80
2023-04-16T16:24:57.610Z,8.77
2023-04-16T16:27:25.123Z,8.79
2023-04-16T16:29:52.628Z,8.74
2023-04-16T16:32:20.128Z,8.82
2023-04-16T16:34:47.667Z,8.65
2023-04-16T16:37:15.436Z,8.61
2023-04-16T16:39:42.929Z,8.57
2023-04-16T16:42:11.927Z,8.58
2023-04-16T16:44:39.522Z,8.66
2023-04-16T16:47:07.063Z,8.56
2023-04-16T16:49:34.597Z,8.72
2023-04-16T16:52:02.153Z,8.61
2023-04-16T16:54:29.677Z,8.48
2023-04-16T16:56:57.157Z,8.49
2023-04-16T16:59:26.239Z,8.59
2023-04-16T17:01:53.771Z,8.55
2023-04-16T17:04:21.435Z,8.70
2023-04-16T17:06:49.221Z,8.56
2023-04-16T17:09:16.782Z,8.55
2023-04-16T17:11:44.294Z,8.53
2023-04-16T17:14:13.933Z,8.57
2023-04-16T17:16:42.850Z,8.48
2023-04-16T17:19:12.359Z,8.55
2023-04-16T17:21:39.948Z,8.41
2023-04-16T17:24:08.071Z,8.55
2023-04-16T17:26:35.566Z,8.55
2023-04-16T17:29:04.415Z,8.36
2023-04-16T17:31:32.030Z,8.37
2023-04-16T17:34:00.946Z,8.37
2023-04-16T17:36:28.426Z,8.80
2023-04-16T17:38:56.026Z,8.67
2023-04-16T17:41:23.509Z,8.68
2023-04-16T17:43:51.309Z,8.38
2023-04-16T17:46:18.859Z,8.60
2023-04-16T17:48:47.904Z,8.54
2023-04-16T17:51:16.983Z,8.63
2023-04-16T17:53:44.724Z,8.43
2023-04-16T17:56:12.401Z,8.32
2023-04-16T17:58:39.907Z,8.36
2023-04-16T18:01:07.450Z,8.48
2023-04-16T18:03:35.160Z,8.44
2023-04-16T18:06:02.710Z,8.55
2023-04-16T18:08:32.710Z,8.51
2023-04-16T18:11:00.179Z,8.52
2023-04-16T18:13:27.665Z,8.48
2023-04-16T18:15:55.535Z,8.61
2023-04-16T18:18:23.134Z,8.62
2023-04-16T18:20:50.622Z,8.43
2023-04-16T18:23:18.166Z,8.42
2023-04-16T18:25:48.817Z,8.33
2023-04-16T18:28:17.552Z,8.37
2023-04-16T18:30:45.309Z,8.38
2023-04-16T18:33:42.807Z,8.39
2023-04-16T18:36:01.525Z,8.36
2023-04-16T18:38:30.355Z,8.42
2023-04-16T18:40:59.247Z,8.36
2023-04-16T18:43:26.940Z,8.39
2023-04-16T18:45:54.428Z,8.40
2023-04-16T18:48:21.961Z,8.36
2023-04-16T18:50:49.467Z,8.34
2023-04-16T18:53:17.201Z,8.45
2023-04-16T18:55:44.714Z,8.50
2023-04-16T18:58:13.532Z,8.41
2023-04-16T19:00:41.127Z,8.56
2023-04-16T19:03:09.604Z,8.47
2023-04-16T19:05:37.129Z,8.44
2023-04-16T19:08:04.775Z,8.45
2023-04-16T19:10:32.339Z,8.47
2023-04-16T19:12:59.848Z,8.63
2023-04-16T19:15:31.577Z,8.36
2023-04-16T19:18:00.015Z,8.43
2023-04-16T19:20:27.683Z,8.31
2023-04-16T19:22:55.367Z,8.27
2023-04-16T19:25:22.933Z,8.20
2023-04-16T19:27:51.134Z,8.09
2023-04-16T19:30:19.070Z,8.08
2023-04-16T19:32:47.987Z,8.07
2023-04-16T19:35:15.621Z,8.19
2023-04-16T19:37:43.503Z,8.26
2023-04-16T19:40:11.675Z,8.48
2023-04-16T19:42:39.940Z,8.37
2023-04-16T19:45:08.612Z,8.44
2023-04-16T19:47:36.152Z,8.28
2023-04-16T19:50:05.427Z,8.22
2023-04-16T19:52:37.311Z,8.18
2023-04-16T19:55:05.385Z,8.30
2023-04-16T19:57:33.050Z,8.17
2023-04-16T20:00:00.782Z,8.34
2023-04-16T20:02:28.420Z,8.28
2023-04-16T20:04:55.950Z,8.41
2023-04-16T20:07:24.775Z,8.28
2023-04-16T20:09:53.336Z,8.20
2023-04-16T20:12:20.995Z,8.36
2023-04-16T20:14:48.522Z,8.28
2023-04-16T20:17:18.594Z,8.23
2023-04-16T20:19:49.383Z,8.35
2023-04-16T20:22:18.620Z,8.20
2023-04-16T20:24:48.193Z,8.30
2023-04-16T20:27:16.812Z,8.32
2023-04-16T20:29:44.315Z,8.07
2023-04-16T20:32:11.800Z,7.95
2023-04-16T20:34:40.518Z,7.96
2023-04-16T20:37:08.068Z,7.99
2023-04-16T20:39:37.178Z,8.25
2023-04-16T20:42:10.369Z,8.18
2023-04-16T20:44:41.325Z,7.97
2023-04-16T20:47:09.256Z,8.36
2023-04-16T20:49:38.446Z,8.15
2023-04-16T20:52:07.272Z,8.11
2023-04-16T20:54:35.047Z,8.06
2023-04-16T20:57:04.785Z,7.99
2023-04-16T20:59:33.911Z,8.15
2023-04-16T21:02:01.647Z,8.11
2023-04-16T21:04:29.304Z,8.06
2023-04-16T21:06:56.850Z,8.19
2023-04-16T21:09:24.697Z,8.39
2023-04-16T21:11:52.438Z,8.18
2023-04-16T21:14:19.941Z,8.09
2023-04-16T21:16:48.781Z,8.12
2023-04-16T21:19:16.289Z,8.20
2023-04-16T21:21:43.808Z,7.98
2023-04-16T21:24:11.366Z,7.88
2023-04-16T21:26:38.862Z,7.87
2023-04-16T21:29:06.379Z,8.02
2023-04-16T21:31:33.921Z,7.96
2023-04-16T21:34:02.790Z,7.85
2023-04-16T21:36:32.071Z,7.85
2023-04-16T21:38:59.587Z,7.87
2023-04-16T21:41:27.153Z,7.84
2023-04-16T21:43:54.714Z,7.93
2023-04-16T21:46:22.572Z,8.11
2023-04-16T21:48:50.788Z,7.90
2023-04-16T21:51:20.097Z,7.86
2023-04-16T21:53:47.602Z,7.85
2023-04-16T21:56:15.173Z,7.79
2023-04-16T21:58:42.688Z,7.77
2023-04-16T22:01:11.050Z,8.05
2023-04-16T22:03:40.349Z,7.82
2023-04-16T22:06:08.730Z,7.82
2023-04-16T22:08:37.904Z,7.88
2023-04-16T22:11:05.588Z,7.91
2023-04-16T22:13:33.182Z,7.77
2023-04-16T22:16:02.319Z,7.72
2023-04-16T22:18:32.866Z,7.79
2023-04-16T22:21:00.799Z,7.77
2023-04-16T22:23:28.409Z,7.62
2023-04-16T22:25:57.648Z,7.74
2023-04-16T22:28:25.325Z,7.55
2023-04-16T22:30:52.833Z,7.45
2023-04-16T22:33:20.362Z,7.43
2023-04-16T22:35:48.001Z,7.42
2023-04-16T22:38:16.489Z,7.29
2023-04-16T22:40:44.158Z,7.27
2023-04-16T22:43:12.986Z,7.28
2023-04-16T22:45:41.106Z,7.20
2023-04-16T22:48:08.691Z,7.17
2023-04-16T22:50:36.220Z,7.12
2023-04-16T22:53:03.790Z,7.08
2023-04-16T22:55:31.276Z,7.03
2023-04-16T22:57:58.834Z,6.95
2023-04-16T23:00:28.446Z,6.89
2023-04-16T23:02:56.038Z,6.82
2023-04-16T23:05:23.597Z,6.71
2023-04-16T23:07:51.137Z,6.70
2023-04-16T23:10:18.620Z,6.69
2023-04-16T23:12:46.153Z,6.72
2023-04-16T23:15:14.439Z,6.74
2023-04-16T23:17:43.396Z,6.60
2023-04-16T23:20:12.165Z,6.61
2023-04-16T23:22:39.693Z,6.47
2023-04-16T23:25:08.812Z,6.43
2023-04-16T23:27:36.390Z,6.33
2023-04-16T23:30:04.564Z,6.26
2023-04-16T23:32:33.969Z,6.27
2023-04-16T23:35:02.967Z,6.19
2023-04-16T23:37:30.520Z,6.22
2023-04-16T23:39:58.057Z,6.12
2023-04-16T23:42:25.559Z,6.05
2023-04-16T23:44:53.129Z,5.96
2023-04-16T23:47:20.684Z,5.88
2023-04-16T23:49:48.200Z,5.83
2023-04-16T23:52:17.019Z,5.81
2023-04-16T23:54:44.503Z,5.73
2023-04-16T23:57:12.011Z,5.67
2023-04-16T23:59:39.615Z,5.67
